CYKP

Ogoki Post

Ogoki Post, Ontario, Canada
METAR CYKP 150000Z AUTO 04007KT 9SM BKN027 BKN037 OVC065 11/06 A3003 RMK SLP171
Observed Flight Rules
Aug-15 @ 00:00 UTC (an hour ago) Marginal Visual Flight Rules
Wind Visibility Clouds
40° at 7 knots 9 miles
  • Broken at 2,700' AGL
  • Broken at 3,700' AGL
  • Overcast at 6,500' AGL
Temperatures Readings
Current 11°C / 52°F
Dewpoint 6°C / 43°F
Humidity 72%
Altimeter 30.03" Hg
Pressure 1017.1 hPa
Elevation 179
METAR CYKP 150000Z AUTO 04007KT 9SM BKN027 BKN037 OVC065 11/06 A3003 RMK SLP171
Observed Flight Rules
Aug-15 @ 00:00 UTC
(an hour ago)
MVFR
Wind Visibility
40° at 7 knots 9 miles
Clouds
  • Broken at 2,700' AGL
  • Broken at 3,700' AGL
  • Overcast at 6,500' AGL
Temperature Dewpoint
11°C / 52°F 6°C / 43°F
Humidity Altimeter Pressure
72% 30.03" Hg 1017.1 hPa